createdAt,value
2022-08-04T00:01:27.806Z,21.40
2022-08-04T00:04:52.451Z,21.40
2022-08-04T00:07:44.811Z,21.30
2022-08-04T00:10:28.412Z,21.40
2022-08-04T00:12:57.861Z,21.40
2022-08-04T00:15:27.508Z,21.30
2022-08-04T00:17:56.616Z,21.20
2022-08-04T00:20:30.631Z,21.10
2022-08-04T00:23:00.217Z,21.00
2022-08-04T00:25:31.826Z,20.90
2022-08-04T00:28:04.911Z,20.80
2022-08-04T00:30:34.222Z,20.80
2022-08-04T00:33:02.988Z,20.90
2022-08-04T00:35:42.452Z,20.90
2022-08-04T00:38:11.701Z,20.90
2022-08-04T00:41:10.526Z,20.90
2022-08-04T00:44:23.725Z,20.90
2022-08-04T00:47:24.506Z,20.90
2022-08-04T00:50:14.300Z,20.90
2022-08-04T00:52:50.341Z,20.70
2022-08-04T00:56:23.315Z,20.50
2022-08-04T00:59:20.306Z,20.40
2022-08-04T01:02:29.109Z,20.30
2022-08-04T01:05:27.931Z,20.30
2022-08-04T01:08:20.282Z,20.40
2022-08-04T01:11:28.411Z,20.50
2022-08-04T01:14:25.588Z,20.50
2022-08-04T01:17:24.163Z,20.30
2022-08-04T01:19:58.187Z,20.20
2022-08-04T01:22:47.079Z,20.20
2022-08-04T01:25:57.635Z,20.20
2022-08-04T01:28:46.157Z,20.20
2022-08-04T01:33:58.481Z,19.90
2022-08-04T01:36:35.910Z,19.90
2022-08-04T01:39:25.081Z,19.80
2022-08-04T01:41:58.200Z,19.80
2022-08-04T01:44:29.942Z,19.70
2022-08-04T01:46:57.982Z,19.70
2022-08-04T01:49:30.182Z,19.70
2022-08-04T01:52:10.427Z,19.70
2022-08-04T01:54:41.406Z,19.70
2022-08-04T01:57:37.153Z,19.70
2022-08-04T02:00:01.176Z,19.60
2022-08-04T02:02:28.662Z,19.60
2022-08-04T02:04:56.496Z,19.50
2022-08-04T02:07:39.347Z,19.50
2022-08-04T02:10:27.141Z,19.40
2022-08-04T02:13:04.631Z,19.40
2022-08-04T02:15:52.712Z,19.40
2022-08-04T02:18:43.331Z,19.40
2022-08-04T02:21:10.378Z,19.40
2022-08-04T02:23:41.110Z,19.40
2022-08-04T02:26:22.536Z,19.40
2022-08-04T02:29:13.687Z,19.30
2022-08-04T02:31:47.626Z,19.30
2022-08-04T02:34:24.791Z,19.20
2022-08-04T02:36:53.026Z,19.20
2022-08-04T02:39:21.635Z,19.20
2022-08-04T02:41:50.577Z,19.20
2022-08-04T02:44:23.003Z,19.20
2022-08-04T02:46:54.685Z,19.20
2022-08-04T02:49:24.243Z,19.20
2022-08-04T02:51:53.657Z,19.30
2022-08-04T02:54:32.585Z,19.20
2022-08-04T02:57:02.704Z,19.10
2022-08-04T02:59:53.505Z,19.00
2022-08-04T03:02:37.770Z,19.00
2022-08-04T03:05:17.075Z,18.90
2022-08-04T03:08:19.620Z,18.90
2022-08-04T03:11:14.692Z,18.80
2022-08-04T03:14:00.285Z,19.00
2022-08-04T03:16:42.450Z,19.00
2022-08-04T03:19:40.512Z,19.00
2022-08-04T03:22:53.785Z,18.80
2022-08-04T03:26:03.291Z,18.70
2022-08-04T03:28:54.570Z,18.70
2022-08-04T03:31:48.485Z,18.70
2022-08-04T03:34:42.816Z,18.60
2022-08-04T03:37:39.061Z,18.70
2022-08-04T03:40:29.281Z,18.70
2022-08-04T03:43:58.700Z,18.80
2022-08-04T03:46:17.911Z,18.80
2022-08-04T03:49:10.900Z,19.00
2022-08-04T03:52:17.957Z,18.80
2022-08-04T03:55:03.576Z,18.70
2022-08-04T03:57:58.495Z,18.80
2022-08-04T04:00:44.231Z,18.70
2022-08-04T04:03:45.051Z,18.60
2022-08-04T04:06:18.300Z,18.50
2022-08-04T04:08:57.282Z,18.40
2022-08-04T04:11:54.446Z,18.50
2022-08-04T04:14:44.851Z,18.50
2022-08-04T04:17:36.360Z,18.90
2022-08-04T04:20:23.671Z,19.20
2022-08-04T04:23:27.626Z,19.60
2022-08-04T04:26:16.006Z,19.90
2022-08-04T04:29:12.536Z,20.20
2022-08-04T04:32:06.206Z,20.40
2022-08-04T04:34:45.658Z,20.70
2022-08-04T04:37:22.342Z,21.00
2022-08-04T04:40:18.617Z,21.50
2022-08-04T04:43:20.697Z,21.80
2022-08-04T04:46:05.890Z,22.00
2022-08-04T04:48:53.416Z,22.40
2022-08-04T04:51:40.296Z,22.90
2022-08-04T04:54:17.937Z,23.30
2022-08-04T04:56:51.291Z,23.70
2022-08-04T04:59:27.941Z,24.20
2022-08-04T05:02:43.410Z,24.50
2022-08-04T05:05:16.555Z,24.70
2022-08-04T05:08:45.247Z,24.50
2022-08-04T05:11:14.325Z,24.50
2022-08-04T05:14:34.996Z,24.50
2022-08-04T05:16:50.115Z,24.50
2022-08-04T05:19:33.514Z,24.10
2022-08-04T05:22:13.923Z,24.10
2022-08-04T05:24:46.483Z,24.30
2022-08-04T05:27:27.141Z,24.40
2022-08-04T05:29:59.442Z,24.70
2022-08-04T05:32:40.353Z,24.70
2022-08-04T05:35:16.009Z,25.00
2022-08-04T05:38:04.564Z,25.20
2022-08-04T05:40:31.925Z,25.10
2022-08-04T05:43:00.854Z,25.00
2022-08-04T05:45:28.605Z,25.40
2022-08-04T05:48:09.230Z,25.70
2022-08-04T05:50:37.964Z,26.10
2022-08-04T05:53:06.526Z,26.40
2022-08-04T05:55:57.501Z,26.70
2022-08-04T05:58:22.845Z,26.70
2022-08-04T06:00:52.617Z,27.00
2022-08-04T06:03:23.230Z,26.70
2022-08-04T06:05:51.175Z,27.00
2022-08-04T06:08:18.683Z,27.20
2022-08-04T06:10:48.200Z,27.20
2022-08-04T06:13:49.119Z,27.10
2022-08-04T06:16:08.546Z,26.90
2022-08-04T06:19:59.898Z,27.20
2022-08-04T06:21:39.290Z,27.30
2022-08-04T06:24:10.981Z,27.40
2022-08-04T06:26:40.608Z,27.70
2022-08-04T06:29:18.209Z,27.80
2022-08-04T06:32:30.522Z,27.60
2022-08-04T06:34:35.870Z,27.90
2022-08-04T06:37:04.523Z,28.10
2022-08-04T06:39:33.288Z,28.30
2022-08-04T06:42:21.896Z,28.50
2022-08-04T06:44:52.710Z,28.80
2022-08-04T06:47:21.811Z,28.90
2022-08-04T06:51:24.988Z,29.10
2022-08-04T06:52:40.067Z,29.10
2022-08-04T06:55:08.535Z,29.00
2022-08-04T06:57:36.629Z,29.20
2022-08-04T07:00:12.163Z,29.40
2022-08-04T07:02:46.086Z,29.40
2022-08-04T07:05:13.976Z,29.80
2022-08-04T07:07:56.905Z,29.60
2022-08-04T07:10:28.195Z,29.80
2022-08-04T07:13:00.556Z,29.70
2022-08-04T07:15:28.565Z,29.80
2022-08-04T07:18:05.742Z,30.00
2022-08-04T07:20:35.445Z,30.10
2022-08-04T07:23:07.722Z,30.40
2022-08-04T07:26:11.450Z,30.40
2022-08-04T07:28:31.148Z,30.50
2022-08-04T07:30:59.017Z,30.50
2022-08-04T07:33:26.720Z,30.40
2022-08-04T07:36:09.738Z,30.40
2022-08-04T07:38:50.954Z,30.60
2022-08-04T07:41:43.311Z,30.70
2022-08-04T07:44:14.905Z,31.00
2022-08-04T07:46:43.378Z,31.10
2022-08-04T07:49:10.881Z,31.30
2022-08-04T07:51:38.724Z,31.40
2022-08-04T07:54:09.715Z,31.50
2022-08-04T07:56:41.571Z,31.10
2022-08-04T07:59:09.421Z,31.40
2022-08-04T08:01:37.481Z,31.70
2022-08-04T08:04:08.720Z,31.90
2022-08-04T08:06:42.728Z,31.80
2022-08-04T08:09:14.776Z,31.90
2022-08-04T08:12:37.316Z,31.90
2022-08-04T08:14:32.016Z,32.00
2022-08-04T08:17:02.907Z,31.50
2022-08-04T08:19:31.891Z,31.30
2022-08-04T08:22:01.226Z,31.00
2022-08-04T08:24:30.384Z,30.50
2022-08-04T08:26:58.364Z,31.00
2022-08-04T08:29:26.851Z,31.60
2022-08-04T08:31:56.668Z,31.90
2022-08-04T08:34:31.341Z,32.20
2022-08-04T08:37:21.601Z,32.10
2022-08-04T08:40:16.543Z,31.60
2022-08-04T08:44:05.033Z,31.90
2022-08-04T08:46:48.521Z,32.30
2022-08-04T08:50:02.020Z,32.80
2022-08-04T08:53:03.276Z,33.30
2022-08-04T08:55:57.150Z,33.40
2022-08-04T08:58:52.163Z,33.70
2022-08-04T09:01:37.649Z,33.80
2022-08-04T09:04:23.253Z,33.50
2022-08-04T09:07:26.051Z,33.50
2022-08-04T09:10:11.980Z,33.70
2022-08-04T09:12:44.114Z,34.00
2022-08-04T09:15:48.195Z,34.20
2022-08-04T09:21:00.894Z,31.50
2022-08-04T09:24:03.694Z,31.60
2022-08-04T09:34:31.336Z,32.00
2022-08-04T09:37:33.175Z,32.70
2022-08-04T09:40:53.754Z,33.10
2022-08-04T09:44:50.935Z,33.30
2022-08-04T09:47:02.709Z,33.20
2022-08-04T09:49:40.114Z,33.40
2022-08-04T09:52:17.234Z,33.60
2022-08-04T09:54:49.476Z,33.80
2022-08-04T09:57:31.765Z,33.60
2022-08-04T10:00:09.753Z,33.90
2022-08-04T10:02:40.836Z,33.50
2022-08-04T10:05:15.063Z,33.60
2022-08-04T10:08:16.186Z,33.80
2022-08-04T10:10:57.849Z,34.00
2022-08-04T10:13:57.693Z,33.80
2022-08-04T10:16:47.987Z,34.10
2022-08-04T10:19:29.147Z,34.20
2022-08-04T10:22:30.043Z,34.20
2022-08-04T10:26:07.240Z,34.20
2022-08-04T10:28:31.770Z,34.40
2022-08-04T10:31:03.475Z,34.50
2022-08-04T10:34:14.546Z,34.20
2022-08-04T10:37:09.526Z,34.30
2022-08-04T10:40:21.970Z,34.20
2022-08-04T10:43:23.042Z,34.00
2022-08-04T10:46:15.324Z,34.00
2022-08-04T10:49:04.259Z,33.90
2022-08-04T10:51:58.140Z,33.80
2022-08-04T10:54:48.282Z,33.70
2022-08-04T10:57:35.565Z,33.60
2022-08-04T11:00:06.020Z,33.50
2022-08-04T11:03:04.256Z,33.40
2022-08-04T11:05:52.438Z,33.40
2022-08-04T11:08:35.813Z,33.30
2022-08-04T11:11:21.037Z,33.10
2022-08-04T11:13:57.709Z,33.10
2022-08-04T11:16:59.986Z,32.90
2022-08-04T11:19:53.657Z,32.80
2022-08-04T11:22:26.961Z,32.80
2022-08-04T11:25:21.209Z,32.90
2022-08-04T11:28:09.789Z,33.00
2022-08-04T11:30:47.774Z,33.00
2022-08-04T11:33:21.387Z,33.00
2022-08-04T11:36:14.267Z,32.90
2022-08-04T11:38:53.314Z,32.90
2022-08-04T11:41:27.053Z,32.70
2022-08-04T11:44:03.212Z,32.50
2022-08-04T11:46:44.547Z,32.50
2022-08-04T11:49:31.357Z,32.50
2022-08-04T11:52:21.965Z,32.40
2022-08-04T11:54:52.375Z,32.20
2022-08-04T11:57:20.193Z,32.30
2022-08-04T11:59:49.374Z,32.20
2022-08-04T12:02:45.136Z,32.20
2022-08-04T12:05:23.303Z,32.20
2022-08-04T12:08:17.907Z,32.10
2022-08-04T12:11:08.570Z,32.20
2022-08-04T12:13:56.251Z,32.20
2022-08-04T12:16:36.225Z,31.90
2022-08-04T12:19:16.930Z,31.90
2022-08-04T12:21:55.817Z,31.70
2022-08-04T12:24:52.226Z,31.80
2022-08-04T12:27:30.357Z,31.60
2022-08-04T12:30:57.412Z,31.60
2022-08-04T12:34:02.806Z,31.80
2022-08-04T12:36:43.664Z,31.50
2022-08-04T12:39:19.747Z,31.60
2022-08-04T12:41:49.869Z,31.50
2022-08-04T12:44:37.783Z,31.30
2022-08-04T12:47:26.894Z,31.30
2022-08-04T12:50:02.407Z,31.30
2022-08-04T12:53:01.033Z,30.70
2022-08-04T12:55:32.048Z,30.30
2022-08-04T12:58:00.525Z,30.10
2022-08-04T13:00:55.896Z,30.20
2022-08-04T13:03:27.930Z,30.50
2022-08-04T13:05:56.051Z,30.80
2022-08-04T13:08:24.325Z,30.90
2022-08-04T13:10:57.571Z,30.90
2022-08-04T13:13:31.979Z,30.90
2022-08-04T13:16:02.264Z,31.20
2022-08-04T13:18:32.847Z,31.30
2022-08-04T13:21:23.214Z,31.30
2022-08-04T13:24:21.332Z,31.30
2022-08-04T13:27:03.337Z,31.30
2022-08-04T13:30:00.785Z,31.30
2022-08-04T13:32:32.566Z,31.10
2022-08-04T13:35:02.000Z,31.20
2022-08-04T13:37:39.168Z,31.10
2022-08-04T13:40:12.026Z,31.20
2022-08-04T13:42:40.446Z,31.20
2022-08-04T13:45:10.015Z,31.10
2022-08-04T13:47:40.537Z,30.80
2022-08-04T13:50:19.502Z,31.00
2022-08-04T13:52:47.719Z,31.10
2022-08-04T13:55:25.974Z,31.20
2022-08-04T13:58:04.558Z,31.00
2022-08-04T14:01:06.516Z,30.90
2022-08-04T14:03:53.544Z,30.70
2022-08-04T14:06:35.115Z,30.70
2022-08-04T14:09:19.299Z,30.70
2022-08-04T14:12:10.136Z,31.00
2022-08-04T14:14:49.494Z,31.00
2022-08-04T14:17:20.633Z,31.00
2022-08-04T14:19:58.060Z,31.00
2022-08-04T14:22:28.557Z,31.10
2022-08-04T14:24:59.529Z,31.10
2022-08-04T14:27:29.318Z,31.20
2022-08-04T14:29:56.565Z,31.30
2022-08-04T14:32:26.273Z,31.30
2022-08-04T14:34:53.796Z,31.50
2022-08-04T14:37:22.757Z,31.50
2022-08-04T14:40:19.039Z,31.40
2022-08-04T14:42:55.452Z,31.40
2022-08-04T14:45:36.949Z,31.20
2022-08-04T14:48:12.659Z,31.10
2022-08-04T14:50:51.104Z,31.10
2022-08-04T14:53:26.694Z,31.00
2022-08-04T14:55:57.134Z,30.90
2022-08-04T14:58:32.528Z,30.80
2022-08-04T15:01:10.830Z,30.70
2022-08-04T15:03:47.934Z,30.30
2022-08-04T15:06:21.893Z,30.20
2022-08-04T15:08:51.392Z,30.20
2022-08-04T15:11:23.628Z,30.30
2022-08-04T15:13:52.668Z,30.30
2022-08-04T15:16:20.755Z,30.30
2022-08-04T15:18:49.415Z,30.30
2022-08-04T15:21:17.851Z,30.40
2022-08-04T15:23:44.994Z,30.40
2022-08-04T15:26:17.123Z,30.50
2022-08-04T15:28:50.590Z,30.60
2022-08-04T15:32:06.962Z,30.60
2022-08-04T15:34:09.766Z,30.60
2022-08-04T15:36:56.726Z,30.60
2022-08-04T15:39:46.378Z,30.80
2022-08-04T15:42:21.661Z,30.80
2022-08-04T15:45:17.801Z,30.80
2022-08-04T15:48:06.790Z,30.80
2022-08-04T15:50:33.999Z,30.70
2022-08-04T15:53:10.743Z,30.80
2022-08-04T15:55:44.901Z,30.80
2022-08-04T15:58:18.434Z,30.60
2022-08-04T16:00:51.200Z,30.50
2022-08-04T16:03:54.534Z,30.40
2022-08-04T16:06:23.927Z,30.40
2022-08-04T16:09:01.697Z,30.50
2022-08-04T16:11:34.040Z,30.50
2022-08-04T16:14:07.790Z,30.50
2022-08-04T16:16:41.235Z,30.50
2022-08-04T16:19:17.097Z,30.40
2022-08-04T16:21:50.599Z,30.40
2022-08-04T16:24:28.220Z,30.30
2022-08-04T16:26:57.945Z,30.30
2022-08-04T16:29:31.268Z,30.30
2022-08-04T16:32:16.734Z,30.20
2022-08-04T16:34:54.998Z,30.10
2022-08-04T16:37:43.530Z,30.20
2022-08-04T16:40:36.288Z,30.10
2022-08-04T16:43:10.179Z,30.00
2022-08-04T16:45:48.201Z,30.00
2022-08-04T16:48:17.521Z,29.90
2022-08-04T16:51:04.877Z,29.80
2022-08-04T16:54:02.899Z,29.80
2022-08-04T16:56:33.896Z,29.80
2022-08-04T16:59:12.984Z,29.70
2022-08-04T17:01:50.436Z,29.70
2022-08-04T17:04:17.965Z,29.60
2022-08-04T17:06:49.661Z,29.50
2022-08-04T17:09:19.047Z,29.60
2022-08-04T17:11:47.611Z,29.60
2022-08-04T17:14:31.343Z,29.50
2022-08-04T17:17:01.198Z,29.60
2022-08-04T17:19:28.934Z,29.50
2022-08-04T17:22:05.863Z,29.40
2022-08-04T17:24:38.959Z,29.40
2022-08-04T17:28:20.195Z,29.30
2022-08-04T17:29:55.179Z,29.30
2022-08-04T17:32:23.678Z,29.30
2022-08-04T17:34:53.896Z,29.20
2022-08-04T17:37:53.172Z,29.00
2022-08-04T17:40:17.922Z,28.90
2022-08-04T17:42:45.710Z,28.80
2022-08-04T17:45:49.053Z,28.70
2022-08-04T17:48:24.782Z,28.70
2022-08-04T17:50:52.787Z,28.60
2022-08-04T17:54:01.674Z,28.60
2022-08-04T17:56:33.490Z,28.50
2022-08-04T17:59:16.604Z,28.30
2022-08-04T18:02:08.651Z,28.20
2022-08-04T18:05:05.955Z,28.10
2022-08-04T18:08:37.829Z,28.10
2022-08-04T18:10:54.745Z,28.00
2022-08-04T18:13:26.646Z,27.90
2022-08-04T18:16:04.393Z,27.80
2022-08-04T18:18:31.873Z,27.70
2022-08-04T18:23:50.895Z,27.50
2022-08-04T18:26:18.593Z,27.40
2022-08-04T18:28:51.256Z,27.40
2022-08-04T18:31:18.330Z,27.20
2022-08-04T18:33:59.044Z,27.20
2022-08-04T18:36:35.338Z,27.20
2022-08-04T18:42:03.917Z,27.00
2022-08-04T18:44:32.777Z,26.90
2022-08-04T18:47:23.173Z,26.90
2022-08-04T18:50:59.727Z,26.80
2022-08-04T18:52:42.117Z,26.80
2022-08-04T18:55:55.457Z,26.70
2022-08-04T18:58:07.362Z,26.70
2022-08-04T19:00:38.904Z,26.60
2022-08-04T19:03:16.614Z,26.60
2022-08-04T19:05:51.858Z,26.60
2022-08-04T19:08:34.878Z,26.60
2022-08-04T19:11:29.286Z,26.50
2022-08-04T19:13:58.335Z,26.40
2022-08-04T19:16:30.611Z,26.40
2022-08-04T19:19:05.584Z,26.30
2022-08-04T19:21:59.566Z,26.30
2022-08-04T19:24:31.938Z,26.30
2022-08-04T19:27:06.450Z,26.30
2022-08-04T19:29:40.627Z,26.30
2022-08-04T19:32:14.664Z,26.20
2022-08-04T19:34:47.058Z,26.20
2022-08-04T19:37:58.336Z,26.20
2022-08-04T19:40:10.239Z,26.10
2022-08-04T19:42:38.062Z,26.10
2022-08-04T19:45:06.985Z,26.10
2022-08-04T19:48:15.988Z,26.00
2022-08-04T19:53:19.734Z,26.00
2022-08-04T19:55:50.002Z,26.00
2022-08-04T19:58:19.065Z,26.00
2022-08-04T20:00:51.330Z,26.00
2022-08-04T20:03:20.388Z,26.00
2022-08-04T20:05:53.155Z,25.90
2022-08-04T20:08:30.215Z,25.90
2022-08-04T20:10:59.384Z,25.80
2022-08-04T20:13:36.888Z,25.90
2022-08-04T20:16:28.998Z,25.80
2022-08-04T20:18:56.947Z,25.80
2022-08-04T20:24:37.683Z,25.70
2022-08-04T20:27:04.828Z,25.70
2022-08-04T20:29:40.213Z,25.60
2022-08-04T20:32:09.972Z,25.60
2022-08-04T20:34:41.398Z,25.60
2022-08-04T20:37:10.197Z,25.60
2022-08-04T20:39:38.492Z,25.70
2022-08-04T20:42:06.547Z,25.60
2022-08-04T20:44:34.076Z,25.60
2022-08-04T20:47:01.684Z,25.60
2022-08-04T20:49:35.442Z,25.60
2022-08-04T20:52:13.274Z,25.50
2022-08-04T20:54:42.640Z,25.50
2022-08-04T20:57:16.661Z,25.50
2022-08-04T20:59:50.399Z,25.30
2022-08-04T21:02:27.843Z,25.20
2022-08-04T21:04:56.292Z,25.10
2022-08-04T21:07:25.294Z,25.00
2022-08-04T21:09:52.847Z,24.90
2022-08-04T21:12:28.322Z,24.70
2022-08-04T21:14:57.444Z,24.40
2022-08-04T21:17:57.725Z,24.10
2022-08-04T21:20:27.257Z,23.80
2022-08-04T21:22:59.409Z,24.00
2022-08-04T21:25:28.991Z,24.50
2022-08-04T21:28:04.421Z,24.70
2022-08-04T21:30:36.993Z,25.00
2022-08-04T21:33:50.277Z,25.20
2022-08-04T21:36:27.402Z,25.10
2022-08-04T21:38:57.425Z,24.90
2022-08-04T21:41:49.179Z,24.80
2022-08-04T21:44:26.405Z,24.80
2022-08-04T21:46:55.252Z,24.80
2022-08-04T21:49:24.930Z,24.90
2022-08-04T21:51:58.973Z,25.10
2022-08-04T21:54:29.822Z,25.40
2022-08-04T21:56:57.435Z,25.50
2022-08-04T21:59:30.514Z,25.30
2022-08-04T22:04:54.077Z,24.00
2022-08-04T22:07:26.256Z,23.80
2022-08-04T22:10:18.510Z,23.60
2022-08-04T22:12:53.931Z,23.60
2022-08-04T22:16:05.233Z,23.70
2022-08-04T22:18:12.890Z,23.80
2022-08-04T22:20:47.403Z,24.00
2022-08-04T22:25:59.401Z,24.10
2022-08-04T22:28:38.024Z,24.10
2022-08-04T22:31:23.155Z,24.10
2022-08-04T22:34:05.811Z,24.10
2022-08-04T22:36:38.379Z,24.10
2022-08-04T22:39:08.805Z,24.10
2022-08-04T22:41:48.481Z,24.20
2022-08-04T22:44:22.805Z,24.30
2022-08-04T22:46:58.976Z,24.30
2022-08-04T22:49:32.621Z,24.20
2022-08-04T22:52:09.919Z,24.20
2022-08-04T22:54:49.916Z,24.30
2022-08-04T22:57:43.315Z,24.40
2022-08-04T23:03:38.539Z,24.40
2022-08-04T23:06:19.503Z,24.30
2022-08-04T23:08:59.517Z,24.20
2022-08-04T23:11:36.173Z,24.10
2022-08-04T23:17:10.029Z,24.50
2022-08-04T23:19:43.891Z,24.30
2022-08-04T23:22:44.545Z,24.10
2022-08-04T23:25:19.159Z,24.20
2022-08-04T23:28:11.894Z,24.30
2022-08-04T23:30:41.025Z,24.30
2022-08-04T23:33:16.610Z,24.40
2022-08-04T23:35:54.784Z,24.50
2022-08-04T23:38:31.384Z,24.60
2022-08-04T23:41:14.025Z,24.60
2022-08-04T23:43:55.728Z,24.40
2022-08-04T23:46:44.060Z,24.30
2022-08-04T23:49:43.975Z,24.30
2022-08-04T23:52:34.708Z,24.20
2022-08-04T23:55:31.963Z,24.00
2022-08-04T23:58:19.070Z,23.90
